Terminal Aerodrome Forecast
Issued by NWS Mobile, AL

Home | Current Version | Previous Version | Text Only | Print | Product List | Glossary On
Versions: 1 2 3 4 5 6 7 8 9 10 11 12 13 14 15 16 17 18 19 20 21 22 23 24 25 26 27 28 29 30 31 32 33 34 35 36 37
601
FTUS44 KMOB 272328 CCA
TAFMOB
TAF COR
KMOB 272328Z 2800/2824 04010G25KT 5SM TSRA BR BKN015CB
     FM280300 14006KT P6SM VCSH BKN010
     FM280400 14006KT 1/2SM FG OVC004
     FM281500 16009KT 5SM BR OVC005
     FM281800 17014G20KT P6SM BKN015=

USA.gov is the U.S. government's official web portal to all federal, state and local government web resources and services.